Tiempo atmosférico en la estación meteorológica de Alberca de Zancara, Cuenca (805 m.)



Fecha
DESCASC
Temp. máxima en grados centígrados (hora)
DESCASC
Temp. mínima en grados centígrados (hora)
DESCASC
Temp. media en grados centígrados
DESCASC
Racha de viento máxima en m/sg (hora)
DESCASC
Velocidad máxima media en intervalos de 10 minutos(hora)
DESCASC
Precipitaciones diarias en mm
DESCASC
Precipitaciones de 00:00 a 06:00 en mm
DESCASC
Precipitaciones de 06:00 a 12:00 en mm
DESCASC
Precipitaciones de 12:00 a 18:00 en mm
DESCASC
Precipitaciones de 18:00 a 24:00 en mm
DESCASC
14-07-2019 32.8 (18:00) 15.9 (00:00) 24.3 9.72 (16:20) 6.11 (17:10) 0 0 0 0 0
13-07-2019 36.3 (16:40) 23.6 (00:00) 29.9 11.67 (20:20) 7.5 (20:50) 0.2 0 0.2 0 0
12-07-2019 40 (16:50) 19.7 (00:00) 29.9 9.17 (17:40) 5.83 (17:40) 0 0 0 0 0
11-07-2019 37.2 (17:40) 17.4 (00:00) 27.3 5.83 (16:20) 2.78 (16:40) 0 0 0 0 0
10-07-2019 32.8 (17:00) 15.7 (00:00) 24.2 6.94 (13:00) 3.06 (00:40) 0 0 0 0 0
09-07-2019 30 (19:20) 13.5 (00:00) 21.8 9.72 (11:20) 5.83 (11:20) 0 0 0 0 0
08-07-2019 30.5 (17:20) 17.3 (00:00) 23.9 10.56 (21:00) 6.39 (20:40) 0 0 0 0 0
07-07-2019 35.2 (17:10) 17.5 (00:00) 26.4 13.33 (17:50) 7.5 (17:50) 0 0 0 0 0
06-07-2019 34.9 (18:50) 14.6 (00:00) 24.8 13.06 (19:50) 7.22 (19:40) 0 0 0 0 0
05-07-2019 34.3 (18:30) 16.8 (00:00) 25.5 8.61 (17:20) 5.56 (21:00) 0 0 0 0 0
04-07-2019 32.9 (18:40) 16.2 (00:00) 24.6 10.56 (15:10) 5.28 (20:00) 0 0 0 0 0
03-07-2019 34 (17:10) 18.2 (00:00) 26.1 10 (16:00) 5 (19:20) 0 0 0 0 0
02-07-2019 33.8 (18:00) 17.8 (06:10) 25.8 9.17 (19:50) 5 (19:50) 0 0 0 0 0
01-07-2019 36.4 (17:20) 19 (07:20) 27.7 13.33 (20:10) 5.56 (20:20) 0 0 0 0 0
30-06-2019 38.1 (17:10) 18.7 (00:00) 28.4 9.72 (16:20) 5.56 (20:30) 0 0 0 0 0
29-06-2019 39.8 (17:40) 17.2 (00:00) 28.5 8.89 (13:40) 4.44 (19:50) 0 0 0 0 0
28-06-2019 38.7 (17:00) 17.4 (00:00) 28.1 11.39 (15:10) 5.28 (15:30) 0 0 0 0 0
27-06-2019 36 (17:20) 18.7 (00:00) 27.4 14.44 (12:30) 7.22 (10:30) 0 0 0 0 0
26-06-2019 34.4 (17:40) 16.4 (00:00) 25.4 11.11 (19:40) 5.56 (19:40) 0 0 0 0 0
25-06-2019 36.7 (19:00) 15.9 (00:00) 26.3 9.72 (19:20) 5 (19:20) 0 0 0 0 0
24-06-2019 32.6 (16:40) 15.4 (00:00) 24 9.72 (00:10) 4.44 (01:20) 0 0 0 0 0
23-06-2019 35.1 (18:00) 16.3 (00:00) 25.7 11.11 (00:50) 5.28 (01:00) 0 0 0 0 0
22-06-2019 31.9 (19:10) 13.7 (00:00) 22.8 8.33 (09:40) 4.17 (20:40) 0 0 0 0 0
21-06-2019 29.5 (19:10) 14.7 (00:00) 22.1 10.28 (13:20) 5.28 (16:50) 0 0 0 0 0
20-06-2019 29.4 (18:20) 11.3 (00:00) 20.3 11.67 (15:30) 5.28 (19:20) 0 0 0 0 0
19-06-2019 28.6 (17:00) 12.6 (00:00) 20.6 11.11 (15:10) 6.11 (18:40) 0 0 0 0 0
18-06-2019 30.9 (16:30) 12.7 (00:00) 21.8 12.5 (19:00) 7.22 (19:00) 0 0 0 0 0
17-06-2019 31.6 (18:50) 9.2 (00:00) 20.4 8.61 (16:20) 5 (18:20) 0 0 0 0 0
16-06-2019 27.7 (15:50) 10.8 (00:00) 19.3 9.17 (13:10) 4.44 (12:10) 0 0 0 0 0

Gráficas

Temp. máximas Temp. mínimas Temp. medias Precipitaciones Rachas de viento máximas Velocidades máximas media en intervalos de 10 minutos

Datos horarios

Fecha y hora oficial Temperatura (ºC) Velocidad del viento (km/h) Dirección del viento Racha (km/h) Dirección de racha Precipitación (mm) Presión (hPa) Tendencia (hPa) Humedad (%)
2019-07-15 23:00:00 25 0 Calma 5 Norte 0 -- -- 29
2019-07-15 22:00:00 28.3 4 Norte 13 Noroeste 0 -- -- 25
2019-07-15 21:00:00 32.4 7 Norte 26 Norte 0 -- -- 20
2019-07-15 20:00:00 33.8 13 Noroeste 33 Noroeste 0 -- -- 18
2019-07-15 19:00:00 34.8 14 Noroeste 34 Oeste 0 -- -- 17
2019-07-15 18:00:00 34.9 19 Noroeste 37 Noroeste 0 -- -- 18
2019-07-15 17:00:00 34.5 16 Noroeste 39 Oeste 0 -- -- 19
2019-07-15 16:00:00 33.6 18 Noroeste 35 Noroeste 0 -- -- 21
2019-07-15 15:00:00 32.7 15 Noroeste 36 Oeste 0 -- -- 23
2019-07-15 14:00:00 32.2 19 Noroeste 39 Noroeste 0 -- -- 25
2019-07-15 13:00:00 31.1 15 Noroeste 28 Oeste 0 -- -- 26
2019-07-15 12:00:00 29.8 10 Oeste 17 Oeste 0 -- -- 34
2019-07-15 11:00:00 26.9 8 Oeste 15 Oeste 0 -- -- 44
2019-07-15 10:00:00 24.5 7 Oeste 12 Oeste 0 -- -- 53
2019-07-15 09:00:00 22.8 2 Sudoeste 6 Sudoeste 0 -- -- 60
2019-07-15 08:00:00 17.9 0 Calma 5 Nordeste 0 -- -- 76
2019-07-15 07:00:00 17.9 5 Norte 9 Norte 0 -- -- 77
2019-07-15 06:00:00 18.3 0 Calma 9 Norte 0 -- -- 77
2019-07-15 05:00:00 18.9 4 Nordeste 10 Nordeste 0 -- -- 75
2019-07-15 04:00:00 19.5 5 Nordeste 10 Nordeste 0 -- -- 68
2019-07-15 03:00:00 20.9 3 Este 15 Este 0 -- -- 56
2019-07-15 02:00:00 23.1 5 Nordeste 16 Este 0 -- -- 40
2019-07-15 01:00:00 22.7 2 Noroeste 6 Noroeste 0 -- -- 42
2019-07-15 00:00:00 24 0 Calma 9 Noroeste 0 -- -- 38
2019-07-14 23:00:00 25.5 7 Noroeste 12 Noroeste 0 -- -- 36
2019-07-14 22:00:00 27 8 Noroeste 21 Oeste 0 -- -- 32
2019-07-14 21:00:00 29.6 10 Noroeste 25 Oeste 0 -- -- 28
2019-07-14 20:00:00 31.7 14 Noroeste 32 Noroeste 0 -- -- 26
2019-07-14 19:00:00 30.4 19 Noroeste 34 Oeste 0 -- -- 29
2019-07-14 18:00:00 32.8 15 Noroeste 35 Oeste 0 -- -- 26
2019-07-14 17:00:00 31.9 15 Noroeste 35 Noroeste 0 -- -- 28
2019-07-14 16:00:00 29.9 10 Noroeste 32 Oeste 0 -- -- 31
2019-07-14 15:00:00 31.3 13 Noroeste 29 Noroeste 0 -- -- 31
2019-07-14 14:00:00 28.5 14 Noroeste 31 Oeste 0 -- -- 35
2019-07-14 13:00:00 27.1 15 Oeste 32 Oeste 0 -- -- 41
2019-07-14 12:00:00 25.6 14 Oeste 28 Oeste 0 -- -- 42
2019-07-14 11:00:00 23.8 14 Oeste 31 Oeste 0 -- -- 46
2019-07-14 10:00:00 21.7 13 Oeste 20 Oeste 0 -- -- 49
2019-07-14 09:00:00 19.5 12 Oeste 22 Oeste 0 -- -- 53
2019-07-14 08:00:00 17.1 10 Oeste 16 Oeste 0 -- -- 59
2019-07-14 07:00:00 15.9 8 Oeste 12 Oeste 0 -- -- 60
2019-07-14 06:00:00 16.9 6 Sudoeste 15 Oeste 0 -- -- 56
2019-07-14 05:00:00 17.3 6 Oeste 12 Oeste 0 -- -- 52
2019-07-14 04:00:00 18 6 Oeste 10 Oeste 0 -- -- 45
2019-07-14 03:00:00 19.7 7 Sudoeste 13 Noroeste 0 -- -- 33
2019-07-14 02:00:00 20.5 4 Oeste 15 Noroeste 0 -- -- 33
2019-07-14 01:00:00 23.3 13 Oeste 23 Oeste 0 -- -- 24
2019-07-14 00:00:00 24.3 8 Oeste 29 Oeste 0 -- -- 17
2019-07-13 23:00:00 26.8 19 Oeste 36 Sudoeste 0 -- -- 15
2019-07-13 22:00:00 28.6 21 Oeste 38 Oeste 0 -- -- 16
2019-07-13 21:00:00 31.2 23 Oeste 42 Oeste 0 -- -- 22
2019-07-13 20:00:00 34 23 Oeste 36 Oeste 0 -- -- 20
2019-07-13 19:00:00 34.9 16 Oeste 33 Oeste 0 -- -- 25
2019-07-13 18:00:00 35.9 17 Oeste 29 Oeste 0 -- -- 24
2019-07-13 17:00:00 36.2 14 Sudoeste 28 Sudoeste 0 -- -- 24
2019-07-13 16:00:00 35.6 12 Sudoeste 26 Sudoeste 0 -- -- 24
2019-07-13 15:00:00 33.8 17 Oeste 33 Oeste 0 -- -- 28
2019-07-13 14:00:00 31.5 23 Oeste 36 Noroeste 0 -- -- 35
2019-07-13 13:00:00 31.7 8 Oeste 19 Oeste 0 -- -- 32
2019-07-13 12:00:00 28.5 8 Sudoeste 15 Sudeste 0.2 -- -- 44
2019-07-13 11:00:00 -- -- -- -- -- 0 -- -- --
2019-07-13 10:00:00 27.5 5 Nordeste 18 Sudeste 0 -- -- 35
2019-07-13 09:00:00 25.4 3 Nordeste 9 Norte 0 -- -- 39
2019-07-13 08:00:00 23.9 3 Norte 8 Sudoeste 0 -- -- 42
2019-07-13 07:00:00 24.1 6 Sur 16 Sudeste 0 -- -- 41
2019-07-13 06:00:00 23.8 4 Norte 9 Nordeste 0 -- -- 39
2019-07-13 05:00:00 25.2 3 Sur 9 Sudoeste 0 -- -- 36
2019-07-13 04:00:00 25.6 5 Sudoeste 15 Sur 0 -- -- 34
2019-07-13 03:00:00 26.3 3 Sur 10 Sur 0 -- -- 35
2019-07-13 02:00:00 26.2 4 Este 11 Este 0 -- -- 34
2019-07-13 01:00:00 27.5 4 Este 8 Este 0 -- -- 32
2019-07-13 00:00:00 29.3 2 Este 13 Sudeste 0 -- -- 29
2019-07-12 23:00:00 31.2 6 Sudeste 21 Sudeste 0 -- -- 26
2019-07-12 22:00:00 33.4 5 Sudeste 21 Sur 0 -- -- 21
2019-07-12 21:00:00 35.8 9 Sur 25 Sudeste 0 -- -- 19
2019-07-12 20:00:00 37.4 5 Sudeste 12 Sudoeste 0 -- -- 16
2019-07-12 19:00:00 39.4 4 Oeste 15 Norte 0 -- -- 13
2019-07-12 18:00:00 38.1 12 Oeste 33 Oeste 0 -- -- 15
2019-07-12 17:00:00 40 9 Sudoeste 21 Oeste 0 -- -- 13
2019-07-12 16:00:00 38.7 8 Oeste 14 Oeste 0 -- -- 17
2019-07-12 15:00:00 37.4 7 Sudoeste 19 Sudoeste 0 -- -- 18
2019-07-12 14:00:00 36 11 Sudoeste 19 Oeste 0 -- -- 21
2019-07-12 13:00:00 34.6 6 Sudoeste 15 Sudoeste 0 -- -- 24
2019-07-12 12:00:00 32.2 6 Sudoeste 15 Sudoeste 0 -- -- 26
2019-07-12 11:00:00 30.1 4 Sudeste 9 Sudeste 0 -- -- 29
2019-07-12 10:00:00 27 6 Sur 10 Sur 0 -- -- 35
2019-07-12 09:00:00 23.8 2 Este 8 Este 0 -- -- 43
2019-07-12 08:00:00 20.4 3 Nordeste 8 Nordeste 0 -- -- 51
2019-07-12 07:00:00 19.9 5 Este 14 Este 0 -- -- 53
2019-07-12 06:00:00 20.3 3 Este 13 Nordeste 0 -- -- 53
2019-07-12 05:00:00 20.6 8 Nordeste 15 Nordeste 0 -- -- 52
2019-07-12 04:00:00 21.2 13 Nordeste 17 Nordeste 0 -- -- 48
2019-07-12 03:00:00 22.6 6 Nordeste 14 Nordeste 0 -- -- 42
2019-07-12 02:00:00 23.9 5 Nordeste 14 Nordeste 0 -- -- 38
2019-07-12 01:00:00 25.8 6 Este 10 Sudeste 0 -- -- 37
2019-07-12 00:00:00 27 0 Calma 12 Sur 0 -- -- 32
2019-07-11 23:00:00 25.9 0 Calma 10 Sur 0 -- -- 25
2019-07-11 22:00:00 30.6 0 Calma 6 Sur 0 -- -- 21
2019-07-11 21:00:00 34.3 4 Sur 13 Sudoeste 0 -- -- 17
2019-07-11 20:00:00 35.9 5 Sudoeste 17 Oeste 0 -- -- 15
2019-07-11 19:00:00 36.7 5 Sur 14 Sudoeste 0 -- -- 15
2019-07-11 18:00:00 36.9 8 Sudeste 16 Sudeste 0 -- -- 15
2019-07-11 17:00:00 36.3 4 Nordeste 21 Sudoeste 0 -- -- 17
2019-07-11 16:00:00 35.6 6 Sur 14 Sudoeste 0 -- -- 18
2019-07-11 15:00:00 34.6 7 Sur 18 Nordeste 0 -- -- 18
2019-07-11 14:00:00 33.8 7 Este 17 Este 0 -- -- 20
2019-07-11 13:00:00 32.2 5 Sur 16 Sudeste 0 -- -- 25
2019-07-11 12:00:00 30.2 6 Sudoeste 12 Sudeste 0 -- -- 30
2019-07-11 11:00:00 27.9 7 Sudeste 18 Este 0 -- -- 36
2019-07-11 10:00:00 25.3 8 Sudeste 17 Sudeste 0 -- -- 43
2019-07-11 09:00:00 22.2 5 Este 12 Sudeste 0 -- -- 54
2019-07-11 08:00:00 18.6 4 Este 13 Nordeste 0 -- -- 69
2019-07-11 07:00:00 17.7 9 Este 16 Este 0 -- -- 74
2019-07-11 06:00:00 17.4 7 Nordeste 14 Este 0 -- -- 77
2019-07-11 05:00:00 17.9 7 Nordeste 13 Nordeste 0 -- -- 65
2019-07-11 04:00:00 19.4 4 Nordeste 15 Nordeste 0 -- -- 58
2019-07-11 03:00:00 20.6 7 Este 15 Este 0 -- -- 54
2019-07-11 02:00:00 21.5 6 Sudeste 14 Sudeste 0 -- -- 51
2019-07-11 01:00:00 22.7 6 Este 12 Sudeste 0 -- -- 39
2019-07-11 00:00:00 23.2 4 Nordeste 9 Nordeste 0 -- -- 31
2019-07-10 23:00:00 24.3 4 Nordeste 12 Norte 0 -- -- 30
2019-07-10 22:00:00 27 5 Norte 7 Norte 0 -- -- 25
2019-07-10 21:00:00 31.4 2 Noroeste 7 Sudoeste 0 -- -- 20
2019-07-10 20:00:00 31 4 Oeste 17 Oeste 0 -- -- 20
2019-07-10 19:00:00 32.7 3 Norte 13 Sur 0 -- -- 20
2019-07-10 18:00:00 31.9 6 Sudoeste 18 Noroeste 0 -- -- 21
2019-07-10 17:00:00 32.8 6 Oeste 19 Oeste 0 -- -- 20
2019-07-10 16:00:00 32.6 8 Sudoeste 20 Oeste 0 -- -- 20
2019-07-10 15:00:00 31.4 7 Sur 21 Sur 0 -- -- 23
2019-07-10 14:00:00 30.5 5 Sur 17 Sudoeste 0 -- -- 24
2019-07-10 13:00:00 29.4 7 Sudeste 25 Sudoeste 0 -- -- 25
2019-07-10 12:00:00 27.5 5 Este 14 Este 0 -- -- 35
2019-07-10 11:00:00 25.6 5 Sudeste 14 Este 0 -- -- 40
2019-07-10 10:00:00 23.1 6 Sudeste 17 Nordeste 0 -- -- 48
2019-07-10 09:00:00 20.2 10 Este 16 Este 0 -- -- 56
2019-07-10 08:00:00 17.3 4 Nordeste 9 Nordeste 0 -- -- 66
2019-07-10 07:00:00 15.8 4 Norte 11 Nordeste 0 -- -- 69
2019-07-10 06:00:00 16.3 3 Nordeste 9 Noroeste 0 -- -- 68
2019-07-10 05:00:00 17.5 5 Nordeste 12 Nordeste 0 -- -- 63
2019-07-10 04:00:00 18 6 Nordeste 17 Nordeste 0 -- -- 61
2019-07-10 03:00:00 18 7 Nordeste 13 Nordeste 0 -- -- 58
2019-07-10 02:00:00 19.4 8 Nordeste 15 Nordeste 0 -- -- 53
2019-07-10 01:00:00 20.3 9 Nordeste 17 Nordeste 0 -- -- 49
2019-07-10 00:00:00 21 7 Nordeste 15 Norte 0 -- -- 45
2019-07-09 23:00:00 22 5 Nordeste 10 Nordeste 0 -- -- 37
2019-07-09 22:00:00 23.8 5 Noroeste 14 Noroeste 0 -- -- 28
2019-07-09 21:00:00 27.1 13 Oeste 24 Oeste 0 -- -- 24
2019-07-09 20:00:00 29.1 10 Noroeste 23 Oeste 0 -- -- 22
2019-07-09 19:00:00 29.6 7 Noroeste 20 Norte 0 -- -- 22
2019-07-09 18:00:00 28.6 7 Norte 26 Noroeste 0 -- -- 24
2019-07-09 17:00:00 27.4 6 Norte 28 Oeste 0 -- -- 26
2019-07-09 16:00:00 28.7 10 Noroeste 23 Norte 0 -- -- 24
2019-07-09 15:00:00 27.5 13 Noroeste 28 Noroeste 0 -- -- 26
2019-07-09 14:00:00 27.5 13 Noroeste 24 Norte 0 -- -- 29
2019-07-09 13:00:00 26.4 13 Noroeste 30 Oeste 0 -- -- 34
2019-07-09 12:00:00 24.8 12 Noroeste 35 Oeste 0 -- -- 39
2019-07-09 11:00:00 22.5 17 Oeste 29 Oeste 0 -- -- 43
2019-07-09 10:00:00 19.8 10 Oeste 18 Oeste 0 -- -- 49
2019-07-09 09:00:00 17.1 8 Oeste 11 Oeste 0 -- -- 52
2019-07-09 08:00:00 14.4 7 Oeste 15 Oeste 0 -- -- 57
2019-07-09 07:00:00 13.5 9 Oeste 13 Oeste 0 -- -- 61
2019-07-09 06:00:00 14.3 5 Oeste 10 Sudoeste 0 -- -- 58
2019-07-09 05:00:00 15.4 5 Noroeste 14 Oeste 0 -- -- 56
2019-07-09 04:00:00 16.4 12 Oeste 17 Oeste 0 -- -- 51
2019-07-09 03:00:00 17.1 8 Oeste 13 Oeste 0 -- -- 48
2019-07-09 02:00:00 19.9 11 Oeste 25 Oeste 0 -- -- 41
2019-07-09 01:00:00 20.4 9 Noroeste 23 Noroeste 0 -- -- 40
2019-07-09 00:00:00 22.7 10 Noroeste 23 Noroeste 0 -- -- 33
2019-07-08 23:00:00 24 10 Norte 20 Sudoeste 0 -- -- 32
2019-07-08 22:00:00 25.6 12 Oeste 35 Oeste 0 -- -- 27
2019-07-08 21:00:00 27.4 22 Oeste 38 Oeste 0 -- -- 24
2019-07-08 20:00:00 29.5 16 Oeste 36 Oeste 0 -- -- 22
2019-07-08 19:00:00 29.6 17 Sudoeste 31 Oeste 0 -- -- 22
2019-07-08 18:00:00 30.1 13 Oeste 35 Oeste 0 -- -- 22
2019-07-08 17:00:00 29.5 14 Sudoeste 32 Oeste 0 -- -- 23
2019-07-08 16:00:00 30 16 Oeste 33 Oeste 0 -- -- 23
2019-07-08 15:00:00 29.5 13 Oeste 25 Oeste 0 -- -- 24
2019-07-08 14:00:00 28.6 11 Oeste 21 Oeste 0 -- -- 28
2019-07-08 13:00:00 27.3 8 Oeste 21 Sudoeste 0 -- -- 30
2019-07-08 12:00:00 25.8 9 Oeste 19 Oeste 0 -- -- 34
2019-07-08 11:00:00 23.8 9 Sudoeste 21 Oeste 0 -- -- 38
2019-07-08 10:00:00 21.6 13 Sudoeste 23 Oeste 0 -- -- 45
2019-07-08 09:00:00 20.6 12 Oeste 18 Sudoeste 0 -- -- 49
2019-07-08 08:00:00 18 5 Sudoeste 10 Oeste 0 -- -- 80
2019-07-08 07:00:00 17.9 0 Calma 6 Sudeste 0 -- -- 77
2019-07-08 06:00:00 18.3 3 Este 9 Este 0 -- -- 75
2019-07-08 05:00:00 18.6 0 Calma 9 Sudeste 0 -- -- 67
2019-07-08 04:00:00 19.3 5 Este 12 Sudeste 0 -- -- 66
2019-07-08 03:00:00 20.2 2 Este 9 Nordeste 0 -- -- 60
2019-07-08 02:00:00 21.4 3 Este 22 Este 0 -- -- 57
2019-07-08 01:00:00 22.6 9 Sudeste 20 Este 0 -- -- 52
2019-07-08 00:00:00 23.8 3 Este 29 Sudeste 0 -- -- 50
2019-07-07 23:00:00 26.4 11 Sudeste 31 Sudeste 0 -- -- 41
2019-07-07 22:00:00 29.3 11 Sudoeste 31 Oeste 0 -- -- 27
2019-07-07 21:00:00 31.3 17 Oeste 29 Oeste 0 -- -- 25
2019-07-07 20:00:00 32.9 19 Oeste 44 Sudoeste 0 -- -- 22
2019-07-07 19:00:00 34.3 26 Oeste 43 Oeste 0 -- -- 20
2019-07-07 18:00:00 34.8 23 Sudoeste 48 Sudoeste 0 -- -- 20
2019-07-07 17:00:00 35 8 Sur 23 Sur 0 -- -- 21
2019-07-07 16:00:00 34.6 7 Sudeste 25 Sur 0 -- -- 20
2019-07-07 15:00:00 33.2 14 Sudoeste 24 Sudoeste 0 -- -- 22
2019-07-07 14:00:00 32.5 12 Sudoeste 22 Sudoeste 0 -- -- 21
2019-07-07 13:00:00 30.6 4 Noroeste 12 Noroeste 0 -- -- 22
2019-07-07 12:00:00 29.2 5 Este 12 Este 0 -- -- 23
2019-07-07 11:00:00 27.4 4 Sudeste 8 Noroeste 0 -- -- 24
2019-07-07 10:00:00 25.1 4 Nordeste 16 Norte 0 -- -- 28
2019-07-07 09:00:00 22.5 6 Noroeste 14 Noroeste 0 -- -- 31
2019-07-07 08:00:00 18.6 6 Noroeste 10 Noroeste 0 -- -- 41
2019-07-07 07:00:00 18.1 8 Oeste 10 Oeste 0 -- -- 42
2019-07-07 06:00:00 19.2 4 Sudoeste 8 Sudoeste 0 -- -- 40
2019-07-07 05:00:00 19.8 4 Sudoeste 8 Sur 0 -- -- 38
2019-07-07 04:00:00 20.6 3 Sudoeste 12 Sur 0 -- -- 36
2019-07-07 03:00:00 22.1 5 Sur 14 Oeste 0 -- -- 34
2019-07-07 02:00:00 22.7 9 Noroeste 19 Oeste 0 -- -- 33
2019-07-07 01:00:00 24.6 12 Oeste 21 Sudoeste 0 -- -- 31
2019-07-07 00:00:00 25.9 9 Sudoeste 21 Sudoeste 0 -- -- 26
2019-07-06 23:00:00 26.8 9 Sudoeste 18 Sudoeste 0 -- -- 24
2019-07-06 22:00:00 28.8 9 Sudoeste 31 Sudoeste 0 -- -- 21
2019-07-06 21:00:00 30.8 17 Sudoeste 42 Sudoeste 0 -- -- 19
2019-07-06 20:00:00 32.5 23 Sudoeste 47 Oeste 0 -- -- 17
2019-07-06 19:00:00 34.8 13 Sudoeste 36 Oeste 0 -- -- 16
2019-07-06 18:00:00 33.7 21 Oeste 34 Sudoeste 0 -- -- 19
2019-07-06 17:00:00 34.2 9 Oeste 32 Oeste 0 -- -- 20
2019-07-06 16:00:00 32.8 16 Oeste 34 Oeste 0 -- -- 21
2019-07-06 15:00:00 32.5 12 Sudoeste 30 Oeste 0 -- -- 21
2019-07-06 14:00:00 32 4 Sur 20 Sudoeste 0 -- -- 22
2019-07-06 13:00:00 30.5 8 Sur 19 Sudoeste 0 -- -- 24
2019-07-06 12:00:00 29.4 7 Sudoeste 21 Sudoeste 0 -- -- 24
2019-07-06 11:00:00 28.2 4 Este 10 Nordeste 0 -- -- 21
2019-07-06 10:00:00 26 3 Sudeste 8 Sudeste 0 -- -- 24
2019-07-06 09:00:00 22.5 2 Este 5 Nordeste 0 -- -- 29
2019-07-06 08:00:00 16.8 2 Este 6 Este 0 -- -- 38
2019-07-06 07:00:00 14.9 0 Calma 4 Nordeste 0 -- -- 41
2019-07-06 06:00:00 16.8 3 Este 8 Oeste 0 -- -- 39
2019-07-06 05:00:00 18.8 4 Oeste 7 Oeste 0 -- -- 35
2019-07-06 04:00:00 19.9 4 Oeste 7 Sudoeste 0 -- -- 31
2019-07-06 03:00:00 20.6 5 Oeste 6 Oeste 0 -- -- 31
2019-07-06 02:00:00 20.2 0 Calma 8 Oeste 0 -- -- 31
2019-07-06 01:00:00 23.2 6 Oeste 12 Oeste 0 -- -- 26
2019-07-06 00:00:00 24.6 10 Oeste 17 Oeste 0 -- -- 25
2019-07-05 23:00:00 25.4 9 Oeste 15 Oeste 0 -- -- 25
2019-07-05 22:00:00 28.5 13 Oeste 28 Oeste 0 -- -- 21
2019-07-05 21:00:00 31.5 20 Oeste 29 Oeste 0 -- -- 19
2019-07-05 20:00:00 33.3 13 Oeste 28 Oeste 0 -- -- 21
2019-07-05 19:00:00 34.1 10 Oeste 20 Oeste 0 -- -- 22
2019-07-05 18:00:00 33.9 9 Sudoeste 31 Oeste 0 -- -- 22
2019-07-05 17:00:00 33.4 12 Sudoeste 26 Sudoeste 0 -- -- 23
2019-07-05 16:00:00 33.1 5 Oeste 21 Noroeste 0 -- -- 22
2019-07-05 15:00:00 32 9 Noroeste 21 Oeste 0 -- -- 24
2019-07-05 14:00:00 30.9 6 Noroeste 18 Sudoeste 0 -- -- 26
2019-07-05 13:00:00 29.3 5 Sudeste 15 Sur 0 -- -- 31
2019-07-05 12:00:00 27.8 7 Este 18 Este 0 -- -- 36
2019-07-05 11:00:00 26.3 4 Este 10 Nordeste 0 -- -- 41
2019-07-05 10:00:00 23.9 3 Nordeste 8 Sudoeste 0 -- -- 46
2019-07-05 09:00:00 21.5 3 Sur 10 Sur 0 -- -- 56
2019-07-05 08:00:00 18 4 Este 6 Este 0 -- -- 68
2019-07-05 07:00:00 17.2 0 Calma 7 Nordeste 0 -- -- 70
2019-07-05 06:00:00 17.4 5 Este 11 Este 0 -- -- 67
2019-07-05 05:00:00 18 5 Este 9 Este 0 -- -- 64
2019-07-05 04:00:00 18.7 4 Este 10 Sudeste 0 -- -- 62
2019-07-05 03:00:00 19.6 5 Este 15 Sudeste 0 -- -- 58
2019-07-05 02:00:00 21 6 Sudeste 23 Sudeste 0 -- -- 56
2019-07-05 01:00:00 22 9 Sudeste 26 Sudeste 0 -- -- 50
2019-07-05 00:00:00 22.8 10 Sudeste 26 Sudeste 0 -- -- 47
2019-07-04 23:00:00 23.8 14 Sudeste 30 Sudeste 0 -- -- 45
2019-07-04 22:00:00 25.5 13 Sudeste 30 Este 0 -- -- 41
2019-07-04 21:00:00 28.2 14 Sudeste 33 Sur 0 -- -- 36
2019-07-04 20:00:00 31.6 19 Sudeste 35 Sudeste 0 -- -- 30
2019-07-04 19:00:00 32.7 16 Sudeste 33 Sudeste 0 -- -- 23
2019-07-04 18:00:00 32.5 14 Sudeste 34 Sur 0 -- -- 24
2019-07-04 17:00:00 31.8 13 Sur 37 Sudoeste 0 -- -- 25
2019-07-04 16:00:00 31.7 17 Sur 38 Sur 0 -- -- 25
2019-07-04 15:00:00 31.6 16 Sudeste 34 Sudeste 0 -- -- 26
2019-07-04 14:00:00 30.1 13 Sudeste 32 Este 0 -- -- 30
2019-07-04 13:00:00 29.1 14 Sudeste 37 Sudeste 0 -- -- 32
2019-07-04 12:00:00 27.6 14 Sudeste 32 Sur 0 -- -- 32
2019-07-04 11:00:00 26.2 17 Sudeste 33 Sudeste 0 -- -- 36
2019-07-04 10:00:00 24.2 11 Sudeste 24 Este 0 -- -- 47
2019-07-04 09:00:00 20.7 7 Este 15 Este 0 -- -- 58
2019-07-04 08:00:00 17.5 5 Este 13 Nordeste 0 -- -- 67
2019-07-04 07:00:00 16.6 3 Nordeste 11 Este 0 -- -- 69
2019-07-04 06:00:00 17.3 4 Este 12 Este 0 -- -- 68
2019-07-04 05:00:00 17.8 5 Este 15 Este 0 -- -- 65
2019-07-04 04:00:00 18.2 5 Sudeste 16 Este 0 -- -- 62
2019-07-04 03:00:00 19.4 6 Este 17 Sudeste 0 -- -- 59
2019-07-04 02:00:00 20.6 6 Sudeste 17 Este 0 -- -- 56
2019-07-04 01:00:00 21.7 6 Este 18 Sudeste 0 -- -- 51
2019-07-04 00:00:00 23.2 10 Sudeste 27 Sudeste 0 -- -- 45
2019-07-03 23:00:00 24.7 10 Sudeste 27 Este 0 -- -- 41
2019-07-03 22:00:00 26.6 12 Sudeste 31 Este 0 -- -- 35
2019-07-03 21:00:00 29.9 15 Sudeste 32 Sur 0 -- -- 29
2019-07-03 20:00:00 32.9 15 Sudeste 31 Sudeste 0 -- -- 16
2019-07-03 19:00:00 33.6 15 Sur 33 Sudeste 0 -- -- 15
2019-07-03 18:00:00 33.9 14 Sudeste 34 Sudeste 0 -- -- 16
2019-07-03 17:00:00 33.7 17 Sudeste 33 Sudeste 0 -- -- 17
2019-07-03 16:00:00 33.2 17 Sudeste 36 Sudeste 0 -- -- 19
2019-07-03 15:00:00 32.3 13 Sudeste 32 Sur 0 -- -- 23
2019-07-03 14:00:00 30.9 15 Sudeste 31 Sudeste 0 -- -- 24
2019-07-03 13:00:00 30.2 11 Sudeste 26 Sudeste 0 -- -- 25
2019-07-03 12:00:00 28.5 11 Sudeste 29 Sudeste 0 -- -- 32
2019-07-03 11:00:00 26.6 11 Sudeste 24 Sudeste 0 -- -- 37
2019-07-03 10:00:00 24.1 11 Sudeste 23 Sudeste 0 -- -- 43
2019-07-03 09:00:00 21.3 5 Este 17 Este 0 -- -- 57
2019-07-03 08:00:00 18.4 6 Nordeste 15 Este 0 -- -- 62
2019-07-03 07:00:00 18.3 6 Sudeste 21 Sudeste 0 -- -- 59
2019-07-03 06:00:00 18.8 9 Este 21 Este 0 -- -- 61
2019-07-03 05:00:00 19.4 10 Sudeste 21 Nordeste 0 -- -- 58
2019-07-03 04:00:00 19.9 10 Sudeste 22 Sudeste 0 -- -- 56
2019-07-03 03:00:00 20 7 Este 18 Este 0 -- -- 48
2019-07-03 02:00:00 20.7 6 Este 19 Este 0 -- -- 45
2019-07-03 01:00:00 21.6 9 Sudeste 21 Este 0 -- -- 43
2019-07-03 00:00:00 22.8 5 Este 14 Este 0 -- -- 48
2019-07-02 23:00:00 24.8 5 Este 19 Sudeste 0 -- -- 45
2019-07-02 22:00:00 27 10 Sudeste 32 Sur 0 -- -- 38
2019-07-02 21:00:00 29 17 Sudeste 32 Sudeste 0 -- -- 35
2019-07-02 20:00:00 32.3 15 Sur 33 Sur 0 -- -- 29
2019-07-02 19:00:00 33.5 12 Sur 27 Sudeste 0 -- -- 25
2019-07-02 18:00:00 33.8 8 Sur 26 Sudeste 0 -- -- 26
2019-07-02 17:00:00 32.9 8 Sudeste 25 Sudeste 0 -- -- 28
2019-07-02 16:00:00 32.8 12 Sudeste 27 Sudeste 0 -- -- 31
2019-07-02 15:00:00 31.1 11 Sur 28 Sudeste 0 -- -- 38
2019-07-02 14:00:00 30.2 12 Sudeste 28 Sudeste 0 -- -- 39
2019-07-02 13:00:00 28.3 13 Sudeste 31 Sudeste 0 -- -- 45
2019-07-02 12:00:00 26.8 16 Sudeste 28 Sudeste 0 -- -- 49
2019-07-02 11:00:00 25.4 14 Sudeste 30 Sudeste 0 -- -- 51
2019-07-02 10:00:00 23.7 13 Sudeste 28 Sudeste 0 -- -- 49
2019-07-02 09:00:00 21.6 7 Este 15 Nordeste 0 -- -- 58
2019-07-02 08:00:00 18.8 5 Este 15 Este 0 -- -- 67
2019-07-02 07:00:00 18 6 Este 15 Nordeste 0 -- -- 68
2019-07-02 06:00:00 17.9 11 Este 21 Este 0 -- -- 70
2019-07-02 05:00:00 18.4 11 Este 19 Este 0 -- -- 68
2019-07-02 04:00:00 19.5 11 Este 19 Este 0 -- -- 60
2019-07-02 03:00:00 19.9 9 Este 14 Este 0 -- -- 56
2019-07-02 02:00:00 20.8 5 Este 21 Sudeste 0 -- -- 54
2019-07-02 01:00:00 22.5 10 Este 20 Este 0 -- -- 48
2019-07-02 00:00:00 23.8 10 Este 21 Este 0 -- -- 43
2019-07-01 23:00:00 23.7 7 Este 27 Este 0 -- -- 53
2019-07-01 22:00:00 24.5 18 Este 32 Nordeste 0 -- -- 46
2019-07-01 21:00:00 25.3 9 Sudeste 48 Sudoeste 0 -- -- 41
2019-07-01 20:00:00 35.4 4 Sudoeste 17 Sudoeste 0 -- -- 19
2019-07-01 19:00:00 35.1 10 Sudoeste 23 Sudoeste 0 -- -- 19
2019-07-01 18:00:00 35.6 13 Sudoeste 23 Sudoeste 0 -- -- 19
2019-07-01 17:00:00 35.9 8 Sur 17 Sudoeste 0 -- -- 19
2019-07-01 16:00:00 35.4 9 Oeste 29 Sudoeste 0 -- -- 20
2019-07-01 15:00:00 34.8 10 Este 17 Este 0 -- -- 22
2019-07-01 14:00:00 33.2 8 Sudoeste 18 Oeste 0 -- -- 24
2019-07-01 13:00:00 31.7 6 Oeste 12 Oeste 0 -- -- 27
2019-07-01 12:00:00 30.2 7 Sudoeste 15 Noroeste 0 -- -- 29
2019-07-01 11:00:00 28.2 6 Oeste 19 Oeste 0 -- -- 34
2019-07-01 10:00:00 25.6 8 Sudoeste 13 Sudoeste 0 -- -- 43
2019-07-01 09:00:00 24.1 4 Sur 8 Sur 0 -- -- 47
2019-07-01 08:00:00 19.8 0 Calma 4 Este 0 -- -- 52
2019-07-01 07:00:00 20 3 Este 7 Este 0 -- -- 49
2019-07-01 06:00:00 20.5 2 Sur 10 Sur 0 -- -- 47
2019-07-01 05:00:00 22.6 5 Sur 20 Sudoeste 0 -- -- 42
2019-07-01 04:00:00 23.4 11 Sur 27 Sudeste 0 -- -- 38
2019-07-01 03:00:00 23.9 14 Sudeste 31 Sudeste 0 -- -- 34
2019-07-01 02:00:00 24.9 14 Sudeste 28 Sudeste 0 -- -- 31
2019-07-01 01:00:00 25.7 12 Sudeste 25 Sudeste 0 -- -- 29
2019-07-01 00:00:00 26.1 9 Sudeste 23 Sudeste 0 -- -- 27
2019-06-30 23:00:00 28.3 14 Sudeste 28 Sudeste 0 -- -- 21
2019-06-30 22:00:00 30.2 15 Sudeste 30 Sudeste 0 -- -- 18
2019-06-30 21:00:00 33.1 14 Sudeste 34 Sudeste 0 -- -- 15
2019-06-30 20:00:00 34.6 15 Sur 30 Sur 0 -- -- 15
2019-06-30 19:00:00 35 17 Sudeste 32 Sudeste 0 -- -- 11
2019-06-30 18:00:00 36.5 14 Sur 31 Sudeste 0 -- -- 10
2019-06-30 17:00:00 37.9 13 Sur 35 Sudeste 0 -- -- 10
2019-06-30 16:00:00 37.8 14 Sur 34 Sudeste 0 -- -- 9
2019-06-30 15:00:00 36.7 13 Sur 33 Sudeste 0 -- -- 11
2019-06-30 14:00:00 35.9 14 Sudeste 28 Sudeste 0 -- -- 13
2019-06-30 13:00:00 -- -- -- -- -- -- -- -- --
2019-06-30 12:00:00 -- -- -- -- -- -- -- -- --
2019-06-30 11:00:00 -- -- -- -- -- -- -- -- --
2019-06-30 10:00:00 -- -- -- -- -- -- -- -- --
2019-06-30 09:00:00 -- -- -- -- -- -- -- -- --
2019-06-30 08:00:00 -- -- -- -- -- -- -- -- --
2019-06-30 07:00:00 -- -- -- -- -- -- -- -- --
2019-06-30 06:00:00 -- -- -- -- -- -- -- -- --
2019-06-30 05:00:00 -- -- -- -- -- -- -- -- --
2019-06-30 04:00:00 -- -- -- -- -- -- -- -- --
2019-06-30 03:00:00 -- -- -- -- -- -- -- -- --
2019-06-30 02:00:00 -- -- -- -- -- -- -- -- --
2019-06-30 01:00:00 -- -- -- -- -- -- -- -- --
2019-06-30 00:00:00 -- -- -- -- -- -- -- -- --
2019-06-29 23:00:00 -- -- -- -- -- -- -- -- --
2019-06-29 22:00:00 -- -- -- -- -- -- -- -- --
2019-06-29 21:00:00 -- -- -- -- -- -- -- -- --
2019-06-29 20:00:00 -- -- -- -- -- -- -- -- --
2019-06-29 19:00:00 -- -- -- -- -- -- -- -- --
2019-06-29 18:00:00 -- -- -- -- -- -- -- -- --
2019-06-29 17:00:00 -- -- -- -- -- -- -- -- --
2019-06-29 16:00:00 -- -- -- -- -- -- -- -- --
2019-06-29 15:00:00 -- -- -- -- -- -- -- -- --
2019-06-29 14:00:00 -- -- -- -- -- -- -- -- --
2019-06-29 13:00:00 -- -- -- -- -- -- -- -- --
2019-06-29 12:00:00 33 6 Sur 14 Sur 0 -- -- 13
2019-06-29 11:00:00 30.4 6 Sudoeste 11 Sudoeste 0 -- -- 25
2019-06-29 10:00:00 27.5 5 Este 14 Este 0 -- -- 28
2019-06-29 09:00:00 23.4 7 Este 15 Nordeste 0 -- -- 34
2019-06-29 08:00:00 19.9 6 Nordeste 15 Este 0 -- -- 40
2019-06-29 07:00:00 17.5 6 Este 15 Este 0 -- -- 44
2019-06-29 06:00:00 18.8 7 Este 19 Este 0 -- -- 43
2019-06-29 05:00:00 19.7 6 Este 15 Este 0 -- -- 40
2019-06-29 04:00:00 20.1 6 Este 15 Este 0 -- -- 39
2019-06-29 03:00:00 21.4 6 Este 15 Este 0 -- -- 34
2019-06-29 02:00:00 22.5 6 Este 15 Este 0 -- -- 29
2019-06-29 01:00:00 24.1 6 Sudeste 18 Este 0 -- -- 29
2019-06-29 00:00:00 24.7 8 Sudeste 17 Sudeste 0 -- -- 23
2019-06-28 23:00:00 27.5 7 Sudeste 18 Sudeste 0 -- -- 18
2019-06-28 22:00:00 29.4 7 Sudeste 19 Sudeste 0 -- -- 15
2019-06-28 21:00:00 33.5 12 Sudeste 27 Sudeste 0 -- -- 12
2019-06-28 20:00:00 36.1 16 Sudeste 31 Sudeste 0 -- -- 11
2019-06-28 19:00:00 37.6 14 Sudeste 39 Sudeste 0 -- -- 10
2019-06-28 18:00:00 38.4 14 Sudeste 34 Este 0 -- -- 10
2019-06-28 17:00:00 38.7 14 Sudeste 38 Este 0 -- -- 11
2019-06-28 16:00:00 37.6 19 Sudeste 41 Sudeste 0 -- -- 13
2019-06-28 15:00:00 36.6 18 Sudeste 35 Sudeste 0 -- -- 15
2019-06-28 14:00:00 35.2 19 Sudeste 39 Sudeste 0 -- -- 18
2019-06-28 13:00:00 33.5 15 Sudeste 33 Sudeste 0 -- -- 21
2019-06-28 12:00:00 31.3 15 Sudeste 33 Sudeste 0 -- -- 24
2019-06-28 11:00:00 28.7 13 Sudeste 31 Sudeste 0 -- -- 32
2019-06-28 10:00:00 25.3 8 Este 20 Este 0 -- -- 42
2019-06-28 09:00:00 22.2 8 Este 14 Este 0 -- -- 50
2019-06-28 08:00:00 18.7 9 Este 13 Este 0 -- -- 59
2019-06-28 07:00:00 17.4 8 Este 13 Este 0 -- -- 62
2019-06-28 06:00:00 18.3 8 Este 14 Este 0 -- -- 59
2019-06-28 05:00:00 19.1 5 Este 13 Sudeste 0 -- -- 56
2019-06-28 04:00:00 19.9 5 Este 13 Este 0 -- -- 54
2019-06-28 03:00:00 21 5 Este 12 Sudeste 0 -- -- 50
2019-06-28 02:00:00 22.2 6 Sudeste 15 Sudeste 0 -- -- 46
2019-06-28 01:00:00 22.8 6 Este 18 Este 0 -- -- 45
2019-06-28 00:00:00 23.8 10 Este 28 Sudeste 0 -- -- 43
2019-06-27 23:00:00 25.3 11 Este 25 Este 0 -- -- 40
2019-06-27 22:00:00 26.9 9 Este 31 Sudeste 0 -- -- 38
2019-06-27 21:00:00 -- -- -- -- -- -- -- -- --
2019-06-27 20:00:00 32.4 21 Sudeste 41 Este 0 -- -- 29
2019-06-27 19:00:00 34.5 20 Sudeste 44 Sudeste 0 -- -- 26
2019-06-27 18:00:00 35.5 21 Sudeste 46 Sudeste 0 -- -- 24
2019-06-27 17:00:00 35.7 23 Sudeste 49 Sudeste 0 -- -- 23
2019-06-27 16:00:00 34.9 20 Sudeste 48 Sudeste 0 -- -- 24
2019-06-27 15:00:00 34.6 24 Sudeste 48 Sudeste 0 -- -- 24
2019-06-27 14:00:00 34 21 Sudeste 49 Sudeste 0 -- -- 24
2019-06-27 13:00:00 32.5 22 Sudeste 52 Sur 0 -- -- 25
2019-06-27 12:00:00 30.2 23 Sudeste 47 Sudeste 0 -- -- 29
2019-06-27 11:00:00 27.6 24 Sudeste 51 Sudeste 0 -- -- 34
2019-06-27 10:00:00 25.1 23 Sudeste 44 Este 0 -- -- 38
2019-06-27 09:00:00 22.8 16 Sudeste 36 Este 0 -- -- 44
2019-06-27 08:00:00 20.7 16 Este 42 Este 0 -- -- 53
2019-06-27 07:00:00 19.6 15 Sudeste 33 Este 0 -- -- 59
2019-06-27 06:00:00 19.2 8 Este 23 Este 0 -- -- 64
2019-06-27 05:00:00 18.8 12 Este 23 Este 0 -- -- 71
2019-06-27 04:00:00 19.4 6 Este 26 Este 0 -- -- 68
2019-06-27 03:00:00 20.4 12 Sudeste 26 Sudeste 0 -- -- 63
2019-06-27 02:00:00 21.1 12 Sudeste 28 Sudeste 0 -- -- 59
2019-06-27 01:00:00 21.8 12 Sudeste 31 Sudeste 0 -- -- 57
2019-06-27 00:00:00 22.9 14 Sudeste 39 Sudeste 0 -- -- 53
2019-06-26 23:00:00 24.2 18 Sudeste 39 Sudeste 0 -- -- 48
2019-06-26 22:00:00 25.6 15 Sudeste 37 Este 0 -- -- 43
2019-06-26 21:00:00 28.7 15 Sudeste 40 Sudeste 0 -- -- 40
2019-06-26 20:00:00 30.9 16 Este 40 Sudeste 0 -- -- 37
2019-06-26 19:00:00 32.5 19 Sudeste 34 Sudeste 0 -- -- 33
2019-06-26 18:00:00 34 16 Sudeste 32 Sudeste 0 -- -- 32
2019-06-26 17:00:00 33.6 14 Sudeste 30 Sudeste 0 -- -- 32
2019-06-26 16:00:00 32.9 12 Sudeste 26 Sudeste 0 -- -- 32
2019-06-26 15:00:00 31.4 10 Sudeste 28 Sudeste 0 -- -- 36
2019-06-26 14:00:00 30.1 12 Sudeste 31 Sudeste 0 -- -- 38
2019-06-26 13:00:00 28.6 13 Sudeste 26 Sudeste 0 -- -- 40
2019-06-26 12:00:00 26.7 12 Sudeste 29 Sudeste 0 -- -- 46
2019-06-26 11:00:00 24.4 10 Sudeste 26 Sudeste 0 -- -- 55
2019-06-26 10:00:00 21.9 13 Sudeste 27 Sudeste 0 -- -- 64
2019-06-26 09:00:00 19.5 8 Sudeste 23 Sudeste 0 -- -- 74
2019-06-26 08:00:00 17.4 10 Sudeste 24 Sudeste 0 -- -- 86
2019-06-26 07:00:00 16.4 5 Sudeste 10 Sudeste 0 -- -- 90
2019-06-26 06:00:00 16.7 5 Este 11 Nordeste 0 -- -- 85
2019-06-26 05:00:00 17.4 8 Este 17 Este 0 -- -- 82
2019-06-26 04:00:00 18.1 10 Nordeste 17 Nordeste 0 -- -- 80
2019-06-26 03:00:00 19.3 7 Este 21 Este 0 -- -- 77
2019-06-26 02:00:00 20.3 8 Sudeste 22 Este 0 -- -- 74
2019-06-26 01:00:00 -- -- -- -- -- -- -- -- --
2019-06-26 00:00:00 -- -- -- -- -- -- -- -- --
2019-06-25 23:00:00 -- -- -- -- -- -- -- -- --
2019-06-25 22:00:00 -- -- -- -- -- -- -- -- --
2019-06-25 21:00:00 -- -- -- -- -- -- -- -- --
2019-06-25 20:00:00 35.5 17 Sudeste 35 Sudeste 0 -- -- 17
2019-06-25 19:00:00 36.7 11 Sudeste 30 Sudeste 0 -- -- 19
2019-06-25 18:00:00 35.6 10 Sur 32 Sudoeste 0 -- -- 22
2019-06-25 17:00:00 35 8 Sudeste 22 Sudoeste 0 -- -- 23
2019-06-25 16:00:00 34.3 6 Sudoeste 20 Sur 0 -- -- 23
2019-06-25 15:00:00 32.7 4 Noroeste 19 Sudoeste 0 -- -- 25
2019-06-25 14:00:00 30.8 11 Sudoeste 18 Sudoeste 0 -- -- 28
2019-06-25 13:00:00 30.7 6 Sur 12 Sudeste 0 -- -- 28
2019-06-25 12:00:00 28.4 4 Sudeste 12 Sudoeste 0 -- -- 33
2019-06-25 11:00:00 25.9 5 Sur 14 Sudoeste 0 -- -- 37
2019-06-25 10:00:00 23.7 6 Sudeste 13 Sudeste 0 -- -- 42
2019-06-25 09:00:00 19.9 4 Este 10 Nordeste 0 -- -- 54
2019-06-25 08:00:00 16.8 8 Nordeste 11 Nordeste 0 -- -- 66
2019-06-25 07:00:00 15.9 5 Nordeste 9 Nordeste 0 -- -- 64
2019-06-25 06:00:00 16.5 4 Nordeste 12 Nordeste 0 -- -- 59
2019-06-25 05:00:00 17.5 7 Este 11 Este 0 -- -- 54
2019-06-25 04:00:00 18.2 3 Este 9 Este 0 -- -- 52
2019-06-25 03:00:00 18.7 3 Nordeste 10 Este 0 -- -- 50
2019-06-25 02:00:00 20 6 Este 11 Este 0 -- -- 47
2019-06-25 01:00:00 21.5 4 Este 15 Nordeste 0 -- -- 45
2019-06-25 00:00:00 23 6 Este 15 Nordeste 0 -- -- 44
2019-06-24 23:00:00 24.7 6 Este 19 Sudeste 0 -- -- 42
2019-06-24 22:00:00 27 9 Sudeste 18 Sudeste 0 -- -- 37
2019-06-24 21:00:00 30.3 2 Sur 12 Sudoeste 0 -- -- 25
2019-06-24 20:00:00 31.4 5 Sudeste 15 Sur 0 -- -- 24
2019-06-24 19:00:00 31.3 7 Sudeste 17 Sudeste 0 -- -- 24
2019-06-24 18:00:00 30.3 6 Sur 19 Sudeste 0 -- -- 24
2019-06-24 17:00:00 31.8 9 Sudeste 21 Sudeste 0 -- -- 22
2019-06-24 16:00:00 30.3 9 Sur 27 Sudeste 0 -- -- 25
2019-06-24 15:00:00 31.4 6 Sur 20 Sudeste 0 -- -- 23
2019-06-24 14:00:00 30.3 8 Sur 21 Sudeste 0 -- -- 25
2019-06-24 13:00:00 29 7 Sur 22 Sur 0 -- -- 26
2019-06-24 12:00:00 27.7 9 Sudeste 22 Sudeste 0 -- -- 29
2019-06-24 11:00:00 25.9 9 Sudeste 24 Sudeste 0 -- -- 29
2019-06-24 10:00:00 22.8 12 Sudeste 22 Sudeste 0 -- -- 36
2019-06-24 09:00:00 19.8 7 Sudeste 17 Sudeste 0 -- -- 44
2019-06-24 08:00:00 16.7 5 Nordeste 15 Nordeste 0 -- -- 54
2019-06-24 07:00:00 15.7 10 Nordeste 17 Este 0 -- -- 60
2019-06-24 06:00:00 16.5 10 Este 18 Nordeste 0 -- -- 54
2019-06-24 05:00:00 17.5 8 Este 19 Este 0 -- -- 49
2019-06-24 04:00:00 17.8 8 Este 22 Este 0 -- -- 48
2019-06-24 03:00:00 18.8 9 Sudeste 28 Sudeste 0 -- -- 44
2019-06-24 02:00:00 20.1 14 Sudeste 34 Sudeste 0 -- -- 39
2019-06-24 01:00:00 21.1 15 Sudeste 35 Sudeste 0 -- -- 39
2019-06-24 00:00:00 22.6 15 Sudeste 29 Sudeste 0 -- -- 32
2019-06-23 23:00:00 23.9 13 Sudeste 26 Sudeste 0 -- -- 28
2019-06-23 22:00:00 26.5 12 Sudeste 26 Este 0 -- -- 30
2019-06-23 21:00:00 29.7 12 Sudeste 26 Sudeste 0 -- -- 27
2019-06-23 20:00:00 32.7 13 Sur 26 Sur 0 -- -- 20
2019-06-23 19:00:00 34.2 13 Sur 26 Sudeste 0 -- -- 17
2019-06-23 18:00:00 35.1 7 Sur 28 Sur 0 -- -- 16
2019-06-23 17:00:00 34.7 6 Sudeste 25 Sudeste 0 -- -- 17
2019-06-23 16:00:00 33.8 9 Sudeste 24 Sur 0 -- -- 18
2019-06-23 15:00:00 32.5 12 Sudeste 30 Sudoeste 0 -- -- 19
2019-06-23 14:00:00 31.3 10 Sur 23 Sur 0 -- -- 22
2019-06-23 13:00:00 30 6 Sur 21 Sur 0 -- -- 26
2019-06-23 12:00:00 28.1 8 Sur 15 Sudoeste 0 -- -- 29
2019-06-23 11:00:00 25.7 8 Sudoeste 14 Sur 0 -- -- 33
2019-06-23 10:00:00 23.6 6 Sur 16 Sudeste 0 -- -- 40
2019-06-23 09:00:00 21.2 8 Sudeste 15 Sudeste 0 -- -- 47
2019-06-23 08:00:00 17.6 4 Sudeste 12 Este 0 -- -- 63
2019-06-23 07:00:00 16.3 5 Este 14 Sudeste 0 -- -- 67
2019-06-23 06:00:00 16.6 5 Este 17 Sudeste 0 -- -- 66
2019-06-23 05:00:00 17.3 5 Este 13 Este 0 -- -- 65
2019-06-23 04:00:00 18 6 Sudeste 18 Sudeste 0 -- -- 61
2019-06-23 03:00:00 19 7 Este 31 Sur 0 -- -- 58
2019-06-23 02:00:00 20.2 18 Sudeste 36 Sudeste 0 -- -- 51
2019-06-23 01:00:00 21.2 19 Sudeste 40 Sudeste 0 -- -- 47
2019-06-23 00:00:00 22.2 10 Sudeste 26 Sudeste 0 -- -- 46
2019-06-22 23:00:00 23.6 8 Sudeste 18 Sudeste 0 -- -- 43
2019-06-22 22:00:00 25.8 9 Sudeste 27 Sudeste 0 -- -- 40
2019-06-22 21:00:00 28.7 12 Sur 27 Sudeste 0 -- -- 34
2019-06-22 20:00:00 30.6 9 Oeste 18 Oeste 0 -- -- 20
2019-06-22 19:00:00 31.5 10 Sudoeste 21 Sudoeste 0 -- -- 23
2019-06-22 18:00:00 31.2 10 Sudoeste 23 Sur 0 -- -- 23
2019-06-22 17:00:00 30.7 9 Sur 19 Sur 0 -- -- 27
2019-06-22 16:00:00 29 10 Oeste 19 Sudoeste 0 -- -- 31
2019-06-22 15:00:00 28.9 8 Sudoeste 21 Oeste 0 -- -- 30
2019-06-22 14:00:00 28.5 6 Sudoeste 23 Sudeste 0 -- -- 32
2019-06-22 13:00:00 26.6 10 Sur 24 Sudeste 0 -- -- 38
2019-06-22 12:00:00 24.8 9 Sur 26 Sudeste 0 -- -- 46
2019-06-22 11:00:00 22 14 Sudeste 25 Sudeste 0 -- -- 56
2019-06-22 10:00:00 20.1 13 Sudeste 30 Sudeste 0 -- -- 64
2019-06-22 09:00:00 18.6 10 Sudeste 20 Sudeste 0 -- -- 67
2019-06-22 08:00:00 15.8 5 Este 15 Nordeste 0 -- -- 80
2019-06-22 07:00:00 14 5 Este 12 Este 0 -- -- 87
2019-06-22 06:00:00 14 5 Este 13 Este 0 -- -- 84
2019-06-22 05:00:00 14.5 3 Este 14 Este 0 -- -- 82
2019-06-22 04:00:00 16.1 6 Este 16 Este 0 -- -- 75
2019-06-22 03:00:00 16.9 5 Este 20 Sudeste 0 -- -- 71
2019-06-22 02:00:00 17.6 8 Este 21 Este 0 -- -- 70
2019-06-22 01:00:00 18 10 Este 21 Nordeste 0 -- -- 68
2019-06-22 00:00:00 19.1 9 Sudeste 27 Este 0 -- -- 63
2019-06-21 23:00:00 20.6 6 Norte 12 Oeste 0 -- -- 24
2019-06-21 22:00:00 22.3 10 Oeste 15 Oeste 0 -- -- 20
2019-06-21 21:00:00 26.7 10 Oeste 23 Oeste 0 -- -- 16
2019-06-21 20:00:00 28.6 10 Sudoeste 23 Oeste 0 -- -- 14
2019-06-21 19:00:00 29.2 10 Sudoeste 28 Oeste 0 -- -- 16
2019-06-21 18:00:00 29.1 14 Oeste 28 Oeste 0 -- -- 16
2019-06-21 17:00:00 29.2 14 Oeste 32 Oeste 0 -- -- 18
2019-06-21 16:00:00 28.7 13 Oeste 31 Oeste 0 -- -- 22
2019-06-21 15:00:00 27.7 12 Oeste 29 Oeste 0 -- -- 24
2019-06-21 14:00:00 27 13 Oeste 37 Noroeste 0 -- -- 28
2019-06-21 13:00:00 25.9 15 Oeste 29 Oeste 0 -- -- 31
2019-06-21 12:00:00 24.5 12 Oeste 24 Oeste 0 -- -- 36
2019-06-21 11:00:00 22.4 9 Oeste 19 Oeste 0 -- -- 42
2019-06-21 10:00:00 20.9 4 Sudoeste 13 Oeste 0 -- -- 45
2019-06-21 09:00:00 18.4 8 Oeste 13 Oeste 0 -- -- 50
2019-06-21 08:00:00 16 5 Sudoeste 8 Sudoeste 0 -- -- 54
2019-06-21 07:00:00 15 2 Sudoeste 9 Oeste 0 -- -- 57
2019-06-21 06:00:00 15.8 3 Sudoeste 5 Sudoeste 0 -- -- 55
2019-06-21 05:00:00 15.7 0 Calma 4 Oeste 0 -- -- 57
2019-06-21 04:00:00 16.5 0 Calma 3 Sudeste 0 -- -- 53
2019-06-21 03:00:00 17.9 0 Calma 8 Nordeste 0 -- -- 47
2019-06-21 02:00:00 19.7 4 Nordeste 13 Noroeste 0 -- -- 44
2019-06-21 01:00:00 21.2 9 Noroeste 20 Noroeste 0 -- -- 40
2019-06-21 00:00:00 21.1 5 Noroeste 8 Norte 0 -- -- 38
2019-06-20 23:00:00 22 3 Noroeste 12 Noroeste 0 -- -- 35
2019-06-20 22:00:00 22.5 6 Noroeste 13 Noroeste 0 -- -- 33
2019-06-20 21:00:00 25.5 10 Oeste 32 Oeste 0 -- -- 28
2019-06-20 20:00:00 28.2 17 Oeste 29 Noroeste 0 -- -- 24
2019-06-20 19:00:00 28.6 17 Oeste 33 Oeste 0 -- -- 24
2019-06-20 18:00:00 29.1 14 Oeste 30 Oeste 0 -- -- 24
2019-06-20 17:00:00 29.2 15 Oeste 33 Norte 0 -- -- 25
2019-06-20 16:00:00 28.5 13 Sudoeste 42 Oeste 0 -- -- 26
2019-06-20 15:00:00 27.8 10 Oeste 26 Oeste 0 -- -- 27
2019-06-20 14:00:00 26.5 11 Oeste 30 Noroeste 0 -- -- 30
2019-06-20 13:00:00 26 9 Sur 21 Oeste 0 -- -- 33
2019-06-20 12:00:00 24.8 9 Oeste 20 Oeste 0 -- -- 36
2019-06-20 11:00:00 23.7 6 Oeste 15 Noroeste 0 -- -- 39
2019-06-20 10:00:00 21.5 6 Noroeste 15 Oeste 0 -- -- 45
2019-06-20 09:00:00 19.3 8 Noroeste 14 Noroeste 0 -- -- 51
2019-06-20 08:00:00 14.6 0 Calma 5 Norte 0 -- -- 62
2019-06-20 07:00:00 11.3 0 Calma 2 Norte 0 -- -- 67
2019-06-20 06:00:00 12.2 0 Calma 2 Noroeste 0 -- -- 63
2019-06-20 05:00:00 14.3 0 Calma 4 Norte 0 -- -- 58
2019-06-20 04:00:00 16.1 2 Este 16 Norte 0 -- -- 55
2019-06-20 03:00:00 17.5 8 Norte 16 Noroeste 0 -- -- 51
2019-06-20 02:00:00 18.3 9 Norte 22 Noroeste 0 -- -- 49
2019-06-20 01:00:00 18.9 9 Noroeste 16 Noroeste 0 -- -- 48
2019-06-20 00:00:00 20.1 9 Noroeste 20 Noroeste 0 -- -- 46
2019-06-19 23:00:00 20.9 7 Noroeste 13 Noroeste 0 -- -- 39
2019-06-19 22:00:00 22.7 7 Noroeste 20 Oeste 0 -- -- 34
2019-06-19 21:00:00 25.9 10 Oeste 27 Oeste 0 -- -- 29
2019-06-19 20:00:00 28.3 17 Oeste 32 Oeste 0 -- -- 24
2019-06-19 19:00:00 28.6 20 Oeste 35 Oeste 0 -- -- 22
2019-06-19 18:00:00 28.5 20 Oeste 36 Oeste 0 -- -- 23
2019-06-19 17:00:00 28.6 17 Oeste 33 Oeste 0 -- -- 24
2019-06-19 16:00:00 27.4 20 Oeste 40 Oeste 0 -- -- 26
2019-06-19 15:00:00 27 17 Oeste 35 Sudoeste 0 -- -- 28
2019-06-19 14:00:00 25.8 17 Oeste 30 Oeste 0 -- -- 32
2019-06-19 13:00:00 24.8 13 Noroeste 31 Oeste 0 -- -- 37
2019-06-19 12:00:00 22.9 14 Oeste 27 Oeste 0 -- -- 42
2019-06-19 11:00:00 21.7 10 Oeste 22 Oeste 0 -- -- 48
2019-06-19 10:00:00 19.9 11 Oeste 20 Oeste 0 -- -- 54
2019-06-19 09:00:00 17.5 7 Oeste 14 Oeste 0 -- -- 48
2019-06-19 08:00:00 14.6 6 Oeste 9 Oeste 0 -- -- 36
2019-06-19 07:00:00 12.7 2 Oeste 6 Oeste 0 -- -- 38
2019-06-19 06:00:00 13.6 4 Oeste 13 Oeste 0 -- -- 34
2019-06-19 05:00:00 14.8 9 Oeste 13 Oeste 0 -- -- 30
2019-06-19 04:00:00 15.1 3 Oeste 9 Oeste 0 -- -- 30
2019-06-19 03:00:00 16.2 8 Oeste 13 Oeste 0 -- -- 29
2019-06-19 02:00:00 16.6 8 Oeste 17 Oeste 0 -- -- 29
2019-06-19 01:00:00 18.5 11 Noroeste 20 Noroeste 0 -- -- 23
2019-06-19 00:00:00 19.2 9 Oeste 15 Oeste 0 -- -- 23
2019-06-18 23:00:00 20.3 7 Sudoeste 14 Oeste 0 -- -- 23
2019-06-18 22:00:00 22.8 10 Oeste 23 Oeste 0 -- -- 21
2019-06-18 21:00:00 26.9 17 Oeste 37 Oeste 0 -- -- 16
2019-06-18 20:00:00 28.8 21 Oeste 36 Oeste 0 -- -- 13
2019-06-18 19:00:00 29.6 26 Sudoeste 45 Oeste 0 -- -- 13
2019-06-18 18:00:00 30.7 19 Sudoeste 44 Oeste 0 -- -- 13
2019-06-18 17:00:00 30.9 18 Sudoeste 39 Oeste 0 -- -- 13
2019-06-18 16:00:00 30.5 18 Sudoeste 40 Sur 0 -- -- 15
2019-06-18 15:00:00 30.1 20 Sudoeste 38 Sudoeste 0 -- -- 18
2019-06-18 14:00:00 28.7 17 Oeste 31 Sudoeste 0 -- -- 22
2019-06-18 13:00:00 27.4 13 Sudoeste 27 Sudoeste 0 -- -- 24
2019-06-18 12:00:00 26 14 Oeste 24 Oeste 0 -- -- 26
2019-06-18 11:00:00 24.4 13 Oeste 25 Sudoeste 0 -- -- 29
2019-06-18 10:00:00 21.9 17 Oeste 24 Oeste 0 -- -- 30
2019-06-18 09:00:00 19.8 6 Sudoeste 12 Sudoeste 0 -- -- 36
2019-06-18 08:00:00 14.7 0 Calma 6 Noroeste 0 -- -- 55
2019-06-18 07:00:00 12.8 0 Calma 3 Este 0 -- -- 60
2019-06-18 06:00:00 14.2 0 Calma 6 Nordeste 0 -- -- 56
2019-06-18 05:00:00 15.8 3 Nordeste 8 Este 0 -- -- 52
2019-06-18 04:00:00 17.5 3 Este 6 Este 0 -- -- 47
2019-06-18 03:00:00 19.2 3 Sur 11 Sudeste 0 -- -- 42
2019-06-18 02:00:00 20.4 6 Nordeste 11 Nordeste 0 -- -- 41
2019-06-18 01:00:00 21.6 7 Sur 21 Sudeste 0 -- -- 38
2019-06-18 00:00:00 22.9 12 Sur 24 Sudeste 0 -- -- 37
2019-06-17 23:00:00 23.9 12 Sur 24 Sudeste 0 -- -- 34
2019-06-17 22:00:00 25.5 10 Sur 23 Sur 0 -- -- 27
2019-06-17 21:00:00 27.8 4 Sudoeste 16 Sudoeste 0 -- -- 20
2019-06-17 20:00:00 30.1 10 Oeste 19 Sudoeste 0 -- -- 18
2019-06-17 19:00:00 31.1 10 Sudoeste 29 Oeste 0 -- -- 17
2019-06-17 18:00:00 31.1 7 Oeste 31 Oeste 0 -- -- 18
2019-06-17 17:00:00 30.4 12 Oeste 31 Sudoeste 0 -- -- 18
2019-06-17 16:00:00 29.5 12 Sudoeste 28 Sudoeste 0 -- -- 19
2019-06-17 15:00:00 29.4 11 Sudoeste 25 Sudoeste 0 -- -- 19
2019-06-17 14:00:00 28.5 6 Sudoeste 28 Sudoeste 0 -- -- 20
2019-06-17 13:00:00 26.9 6 Sur 15 Oeste 0 -- -- 21
2019-06-17 12:00:00 24.6 8 Sudoeste 18 Oeste 0 -- -- 27
2019-06-17 11:00:00 22.3 9 Sudoeste 18 Sudoeste 0 -- -- 31
2019-06-17 10:00:00 19.9 9 Sudoeste 17 Oeste 0 -- -- 37
2019-06-17 09:00:00 17.6 3 Sudoeste 8 Sudoeste 0 -- -- 44
2019-06-17 08:00:00 11.7 0 Calma 5 Nordeste 0 -- -- 75
2019-06-17 07:00:00 9.2 0 Calma 3 Norte 0 -- -- 81
2019-06-17 06:00:00 10.5 0 Calma 4 Norte 0 -- -- 78
2019-06-17 05:00:00 11.4 0 Calma 4 Nordeste 0 -- -- 76
2019-06-17 04:00:00 12.6 0 Calma 5 Nordeste 0 -- -- 72
2019-06-17 03:00:00 14.4 0 Calma 8 Este 0 -- -- 67
2019-06-17 02:00:00 15.9 4 Este 11 Sudeste 0 -- -- 63
2019-06-17 01:00:00 17.7 4 Sudeste 14 Sudeste 0 -- -- 57
2019-06-17 00:00:00 18.9 2 Este 19 Sudeste 0 -- -- 52
2019-06-16 23:00:00 20.3 9 Sudeste 21 Sudeste 0 -- -- 45
2019-06-16 22:00:00 21.5 10 Sudeste 24 Sudeste 0 -- -- 44
2019-06-16 21:00:00 23.6 11 Sudeste 25 Sudeste 0 -- -- 28
2019-06-16 20:00:00 25.2 9 Sudeste 26 Sudeste 0 -- -- 23
2019-06-16 19:00:00 26.1 13 Sudeste 28 Sudeste 0 -- -- 23
2019-06-16 18:00:00 27.5 9 Sur 21 Sudeste 0 -- -- 22
2019-06-16 17:00:00 27.3 3 Sudoeste 16 Sur 0 -- -- 23
2019-06-16 16:00:00 27.3 10 Sudeste 20 Sudeste 0 -- -- 22
2019-06-16 15:00:00 26.4 11 Sudeste 28 Sudeste 0 -- -- 24
2019-06-16 14:00:00 25.8 15 Sudeste 33 Sudeste 0 -- -- 27
2019-06-16 13:00:00 24.8 13 Sudeste 29 Sudeste 0 -- -- 32
2019-06-16 12:00:00 22.9 14 Sudeste 30 Sudeste 0 -- -- 38
2019-06-16 11:00:00 21.3 13 Sudeste 27 Sudeste 0 -- -- 42
2019-06-16 10:00:00 19.7 11 Este 24 Sudeste 0 -- -- 43
2019-06-16 09:00:00 17.3 10 Este 25 Sudeste 0 -- -- 44
2019-06-16 08:00:00 13.5 12 Este 23 Este 0 -- -- 51
2019-06-16 07:00:00 11.6 12 Este 21 Nordeste 0 -- -- 54
2019-06-16 06:00:00 10.9 7 Nordeste 14 Nordeste 0 -- -- 54
2019-06-16 05:00:00 11.8 9 Nordeste 15 Nordeste 0 -- -- 48
2019-06-16 04:00:00 13 8 Este 15 Sudeste 0 -- -- 38
2019-06-16 03:00:00 12.9 3 Nordeste 7 Nordeste 0 -- -- 38
2019-06-16 02:00:00 13.2 4 Nordeste 10 Nordeste 0 -- -- 37
2019-06-16 01:00:00 13.3 4 Nordeste 7 Este 0 -- -- 38
2019-06-16 00:00:00 15.8 4 Norte 8 Norte 0 -- -- 32